sensor_id;sensor_type;location;lat;lon;timestamp;P1;durP1;ratioP1;P2;durP2;ratioP2
9698;SDS011;10089;47.876;8.346;2023-05-07T00:01:08;4.40;;;2.17;;
9698;SDS011;10089;47.876;8.346;2023-05-07T00:03:36;4.85;;;2.25;;
9698;SDS011;10089;47.876;8.346;2023-05-07T00:06:02;3.95;;;2.08;;
9698;SDS011;10089;47.876;8.346;2023-05-07T00:08:28;3.33;;;2.00;;
9698;SDS011;10089;47.876;8.346;2023-05-07T00:10:54;2.40;;;1.98;;
9698;SDS011;10089;47.876;8.346;2023-05-07T00:13:20;4.57;;;2.17;;
9698;SDS011;10089;47.876;8.346;2023-05-07T00:15:46;5.28;;;2.20;;
9698;SDS011;10089;47.876;8.346;2023-05-07T00:18:11;4.25;;;2.10;;
9698;SDS011;10089;47.876;8.346;2023-05-07T00:20:37;2.58;;;1.92;;
9698;SDS011;10089;47.876;8.346;2023-05-07T00:23:03;5.30;;;2.53;;
9698;SDS011;10089;47.876;8.346;2023-05-07T00:25:28;3.85;;;2.25;;
9698;SDS011;10089;47.876;8.346;2023-05-07T00:27:54;3.45;;;2.10;;
9698;SDS011;10089;47.876;8.346;2023-05-07T00:30:20;3.05;;;2.20;;
9698;SDS011;10089;47.876;8.346;2023-05-07T00:32:45;3.40;;;2.17;;
9698;SDS011;10089;47.876;8.346;2023-05-07T00:35:13;7.40;;;2.20;;
9698;SDS011;10089;47.876;8.346;2023-05-07T00:37:39;4.47;;;2.40;;
9698;SDS011;10089;47.876;8.346;2023-05-07T00:40:05;2.83;;;2.10;;
9698;SDS011;10089;47.876;8.346;2023-05-07T00:42:32;3.85;;;2.15;;
9698;SDS011;10089;47.876;8.346;2023-05-07T00:44:58;2.97;;;2.10;;
9698;SDS011;10089;47.876;8.346;2023-05-07T00:47:24;7.20;;;2.20;;
9698;SDS011;10089;47.876;8.346;2023-05-07T00:49:50;2.15;;;1.98;;
9698;SDS011;10089;47.876;8.346;2023-05-07T00:52:17;3.72;;;2.22;;
9698;SDS011;10089;47.876;8.346;2023-05-07T00:54:46;2.75;;;2.10;;
9698;SDS011;10089;47.876;8.346;2023-05-07T00:57:12;3.03;;;1.90;;
9698;SDS011;10089;47.876;8.346;2023-05-07T00:59:39;2.80;;;1.77;;
9698;SDS011;10089;47.876;8.346;2023-05-07T01:02:06;4.93;;;2.33;;
9698;SDS011;10089;47.876;8.346;2023-05-07T01:04:32;2.60;;;2.33;;
9698;SDS011;10089;47.876;8.346;2023-05-07T01:06:58;4.22;;;2.83;;
9698;SDS011;10089;47.876;8.346;2023-05-07T01:09:26;2.63;;;2.05;;
9698;SDS011;10089;47.876;8.346;2023-05-07T01:11:53;2.42;;;2.08;;
9698;SDS011;10089;47.876;8.346;2023-05-07T01:14:20;4.07;;;2.13;;
9698;SDS011;10089;47.876;8.346;2023-05-07T01:16:47;2.55;;;2.20;;
9698;SDS011;10089;47.876;8.346;2023-05-07T01:19:13;4.88;;;2.22;;
9698;SDS011;10089;47.876;8.346;2023-05-07T01:21:47;2.75;;;2.35;;
9698;SDS011;10089;47.876;8.346;2023-05-07T01:24:13;5.93;;;2.30;;
9698;SDS011;10089;47.876;8.346;2023-05-07T01:26:40;3.67;;;2.78;;
9698;SDS011;10089;47.876;8.346;2023-05-07T01:29:07;5.50;;;2.15;;
9698;SDS011;10089;47.876;8.346;2023-05-07T01:31:33;4.68;;;2.22;;
9698;SDS011;10089;47.876;8.346;2023-05-07T01:33:59;2.83;;;2.15;;
9698;SDS011;10089;47.876;8.346;2023-05-07T01:36:27;3.35;;;2.67;;
9698;SDS011;10089;47.876;8.346;2023-05-07T01:38:55;5.05;;;2.75;;
9698;SDS011;10089;47.876;8.346;2023-05-07T01:41:22;2.67;;;2.30;;
9698;SDS011;10089;47.876;8.346;2023-05-07T01:43:48;3.95;;;2.45;;
9698;SDS011;10089;47.876;8.346;2023-05-07T01:46:17;3.58;;;2.50;;
9698;SDS011;10089;47.876;8.346;2023-05-07T01:48:44;3.90;;;2.67;;
9698;SDS011;10089;47.876;8.346;2023-05-07T01:51:11;5.18;;;2.80;;
9698;SDS011;10089;47.876;8.346;2023-05-07T01:53:38;3.65;;;2.40;;
9698;SDS011;10089;47.876;8.346;2023-05-07T01:56:04;3.50;;;2.63;;
9698;SDS011;10089;47.876;8.346;2023-05-07T01:58:30;3.17;;;2.75;;
9698;SDS011;10089;47.876;8.346;2023-05-07T02:00:56;3.22;;;2.75;;
9698;SDS011;10089;47.876;8.346;2023-05-07T02:03:21;2.95;;;2.60;;
9698;SDS011;10089;47.876;8.346;2023-05-07T02:05:47;3.38;;;3.00;;
9698;SDS011;10089;47.876;8.346;2023-05-07T02:08:13;3.17;;;2.55;;
9698;SDS011;10089;47.876;8.346;2023-05-07T02:10:38;2.67;;;2.47;;
9698;SDS011;10089;47.876;8.346;2023-05-07T02:13:04;4.95;;;2.65;;
9698;SDS011;10089;47.876;8.346;2023-05-07T02:15:30;4.22;;;2.72;;
9698;SDS011;10089;47.876;8.346;2023-05-07T02:18:02;3.25;;;2.70;;
9698;SDS011;10089;47.876;8.346;2023-05-07T02:20:30;3.55;;;2.60;;
9698;SDS011;10089;47.876;8.346;2023-05-07T02:22:56;3.88;;;2.47;;
9698;SDS011;10089;47.876;8.346;2023-05-07T02:25:21;3.70;;;2.90;;
9698;SDS011;10089;47.876;8.346;2023-05-07T02:27:47;4.25;;;2.70;;
9698;SDS011;10089;47.876;8.346;2023-05-07T02:30:13;3.67;;;2.80;;
9698;SDS011;10089;47.876;8.346;2023-05-07T02:32:39;6.35;;;3.28;;
9698;SDS011;10089;47.876;8.346;2023-05-07T02:35:05;4.03;;;2.80;;
9698;SDS011;10089;47.876;8.346;2023-05-07T02:37:31;8.73;;;3.92;;
9698;SDS011;10089;47.876;8.346;2023-05-07T02:39:57;5.85;;;4.47;;
9698;SDS011;10089;47.876;8.346;2023-05-07T02:42:22;7.20;;;4.28;;
9698;SDS011;10089;47.876;8.346;2023-05-07T02:44:48;5.32;;;3.45;;
9698;SDS011;10089;47.876;8.346;2023-05-07T02:47:14;3.45;;;2.97;;
9698;SDS011;10089;47.876;8.346;2023-05-07T02:49:40;6.22;;;3.15;;
9698;SDS011;10089;47.876;8.346;2023-05-07T02:52:06;3.08;;;2.65;;
9698;SDS011;10089;47.876;8.346;2023-05-07T02:54:32;3.05;;;2.30;;
9698;SDS011;10089;47.876;8.346;2023-05-07T02:56:57;5.35;;;3.08;;
9698;SDS011;10089;47.876;8.346;2023-05-07T02:59:23;3.20;;;2.90;;
9698;SDS011;10089;47.876;8.346;2023-05-07T03:01:51;4.30;;;2.63;;
9698;SDS011;10089;47.876;8.346;2023-05-07T03:04:16;2.88;;;2.65;;
9698;SDS011;10089;47.876;8.346;2023-05-07T03:06:42;5.13;;;3.17;;
9698;SDS011;10089;47.876;8.346;2023-05-07T03:09:08;5.45;;;2.92;;
9698;SDS011;10089;47.876;8.346;2023-05-07T03:11:34;6.25;;;3.05;;
9698;SDS011;10089;47.876;8.346;2023-05-07T03:14:00;3.80;;;2.80;;
9698;SDS011;10089;47.876;8.346;2023-05-07T03:16:26;5.95;;;3.20;;
9698;SDS011;10089;47.876;8.346;2023-05-07T03:18:52;7.85;;;2.80;;
9698;SDS011;10089;47.876;8.346;2023-05-07T03:21:18;3.40;;;2.63;;
9698;SDS011;10089;47.876;8.346;2023-05-07T03:23:44;4.53;;;3.40;;
9698;SDS011;10089;47.876;8.346;2023-05-07T03:26:09;5.32;;;2.72;;
9698;SDS011;10089;47.876;8.346;2023-05-07T03:28:36;4.80;;;2.60;;
9698;SDS011;10089;47.876;8.346;2023-05-07T03:31:02;3.72;;;2.90;;
9698;SDS011;10089;47.876;8.346;2023-05-07T03:33:27;4.40;;;2.67;;
9698;SDS011;10089;47.876;8.346;2023-05-07T03:35:53;2.97;;;2.47;;
9698;SDS011;10089;47.876;8.346;2023-05-07T03:38:19;5.63;;;2.78;;
9698;SDS011;10089;47.876;8.346;2023-05-07T03:40:45;4.05;;;3.03;;
9698;SDS011;10089;47.876;8.346;2023-05-07T03:43:10;3.97;;;2.83;;
9698;SDS011;10089;47.876;8.346;2023-05-07T03:45:36;3.10;;;2.65;;
9698;SDS011;10089;47.876;8.346;2023-05-07T03:48:02;3.40;;;2.67;;
9698;SDS011;10089;47.876;8.346;2023-05-07T03:50:28;5.60;;;3.28;;
9698;SDS011;10089;47.876;8.346;2023-05-07T03:52:53;4.70;;;2.53;;
9698;SDS011;10089;47.876;8.346;2023-05-07T03:55:19;2.97;;;2.67;;
9698;SDS011;10089;47.876;8.346;2023-05-07T03:57:45;4.53;;;2.47;;
9698;SDS011;10089;47.876;8.346;2023-05-07T04:00:10;6.47;;;3.20;;
9698;SDS011;10089;47.876;8.346;2023-05-07T04:02:37;3.15;;;2.55;;
9698;SDS011;10089;47.876;8.346;2023-05-07T04:05:02;2.92;;;2.63;;
9698;SDS011;10089;47.876;8.346;2023-05-07T04:07:28;3.47;;;2.60;;
9698;SDS011;10089;47.876;8.346;2023-05-07T04:09:54;3.13;;;2.83;;
9698;SDS011;10089;47.876;8.346;2023-05-07T04:12:19;3.13;;;2.50;;
9698;SDS011;10089;47.876;8.346;2023-05-07T04:14:45;3.78;;;2.70;;
9698;SDS011;10089;47.876;8.346;2023-05-07T04:17:11;2.80;;;2.60;;
9698;SDS011;10089;47.876;8.346;2023-05-07T04:19:37;3.55;;;2.85;;
9698;SDS011;10089;47.876;8.346;2023-05-07T04:22:02;2.97;;;2.70;;
9698;SDS011;10089;47.876;8.346;2023-05-07T04:24:30;3.05;;;2.75;;
9698;SDS011;10089;47.876;8.346;2023-05-07T04:26:58;4.07;;;2.78;;
9698;SDS011;10089;47.876;8.346;2023-05-07T04:29:23;4.55;;;2.78;;
9698;SDS011;10089;47.876;8.346;2023-05-07T04:31:49;6.43;;;3.10;;
9698;SDS011;10089;47.876;8.346;2023-05-07T04:34:15;4.97;;;3.17;;
9698;SDS011;10089;47.876;8.346;2023-05-07T04:36:41;6.43;;;2.92;;
9698;SDS011;10089;47.876;8.346;2023-05-07T04:39:07;4.93;;;3.28;;
9698;SDS011;10089;47.876;8.346;2023-05-07T04:41:33;4.63;;;2.83;;
9698;SDS011;10089;47.876;8.346;2023-05-07T04:44:01;3.20;;;2.97;;
9698;SDS011;10089;47.876;8.346;2023-05-07T04:46:29;3.17;;;2.85;;
9698;SDS011;10089;47.876;8.346;2023-05-07T04:48:55;3.60;;;3.13;;
9698;SDS011;10089;47.876;8.346;2023-05-07T04:51:20;5.07;;;2.85;;
9698;SDS011;10089;47.876;8.346;2023-05-07T04:53:46;6.10;;;2.85;;
9698;SDS011;10089;47.876;8.346;2023-05-07T04:56:12;4.63;;;2.90;;
9698;SDS011;10089;47.876;8.346;2023-05-07T04:58:38;2.90;;;2.42;;
9698;SDS011;10089;47.876;8.346;2023-05-07T05:01:04;6.10;;;2.97;;
9698;SDS011;10089;47.876;8.346;2023-05-07T05:03:30;6.45;;;3.05;;
9698;SDS011;10089;47.876;8.346;2023-05-07T05:05:55;10.35;;;2.88;;
9698;SDS011;10089;47.876;8.346;2023-05-07T05:08:24;3.97;;;3.28;;
9698;SDS011;10089;47.876;8.346;2023-05-07T05:10:49;4.55;;;3.10;;
9698;SDS011;10089;47.876;8.346;2023-05-07T05:13:15;3.40;;;3.10;;
9698;SDS011;10089;47.876;8.346;2023-05-07T05:15:41;3.85;;;2.90;;
9698;SDS011;10089;47.876;8.346;2023-05-07T05:18:07;2.88;;;2.53;;
9698;SDS011;10089;47.876;8.346;2023-05-07T05:20:32;5.78;;;3.03;;
9698;SDS011;10089;47.876;8.346;2023-05-07T05:22:58;5.45;;;3.65;;
9698;SDS011;10089;47.876;8.346;2023-05-07T05:25:24;3.28;;;2.88;;
9698;SDS011;10089;47.876;8.346;2023-05-07T05:27:49;4.97;;;3.28;;
9698;SDS011;10089;47.876;8.346;2023-05-07T05:30:15;4.93;;;2.72;;
9698;SDS011;10089;47.876;8.346;2023-05-07T05:32:41;3.50;;;2.80;;
9698;SDS011;10089;47.876;8.346;2023-05-07T05:35:06;3.95;;;2.95;;
9698;SDS011;10089;47.876;8.346;2023-05-07T05:37:32;4.43;;;2.67;;
9698;SDS011;10089;47.876;8.346;2023-05-07T05:39:58;3.00;;;2.50;;
9698;SDS011;10089;47.876;8.346;2023-05-07T05:42:24;5.15;;;2.80;;
9698;SDS011;10089;47.876;8.346;2023-05-07T05:44:50;10.25;;;2.97;;
9698;SDS011;10089;47.876;8.346;2023-05-07T05:47:15;5.78;;;3.40;;
9698;SDS011;10089;47.876;8.346;2023-05-07T05:49:41;3.63;;;2.92;;
9698;SDS011;10089;47.876;8.346;2023-05-07T05:52:08;3.42;;;3.03;;
9698;SDS011;10089;47.876;8.346;2023-05-07T05:54:35;5.05;;;3.28;;
9698;SDS011;10089;47.876;8.346;2023-05-07T05:57:00;3.25;;;2.95;;
9698;SDS011;10089;47.876;8.346;2023-05-07T05:59:29;4.45;;;3.15;;
9698;SDS011;10089;47.876;8.346;2023-05-07T06:01:54;3.17;;;2.88;;
9698;SDS011;10089;47.876;8.346;2023-05-07T06:04:20;4.03;;;2.85;;
9698;SDS011;10089;47.876;8.346;2023-05-07T06:06:46;3.55;;;2.83;;
9698;SDS011;10089;47.876;8.346;2023-05-07T06:09:11;3.67;;;3.03;;
9698;SDS011;10089;47.876;8.346;2023-05-07T06:11:37;9.48;;;2.88;;
9698;SDS011;10089;47.876;8.346;2023-05-07T06:14:03;6.40;;;2.33;;
9698;SDS011;10089;47.876;8.346;2023-05-07T06:16:28;2.50;;;2.28;;
9698;SDS011;10089;47.876;8.346;2023-05-07T06:18:54;3.38;;;2.50;;
9698;SDS011;10089;47.876;8.346;2023-05-07T06:21:20;6.00;;;2.60;;
9698;SDS011;10089;47.876;8.346;2023-05-07T06:23:46;5.05;;;3.45;;
9698;SDS011;10089;47.876;8.346;2023-05-07T06:26:11;7.18;;;4.40;;
9698;SDS011;10089;47.876;8.346;2023-05-07T06:28:39;8.55;;;5.43;;
9698;SDS011;10089;47.876;8.346;2023-05-07T06:31:15;6.65;;;4.95;;
9698;SDS011;10089;47.876;8.346;2023-05-07T06:33:42;4.32;;;3.72;;
9698;SDS011;10089;47.876;8.346;2023-05-07T06:36:09;5.28;;;2.88;;
9698;SDS011;10089;47.876;8.346;2023-05-07T06:38:35;6.40;;;3.55;;
9698;SDS011;10089;47.876;8.346;2023-05-07T06:41:01;7.72;;;3.22;;
9698;SDS011;10089;47.876;8.346;2023-05-07T06:43:27;3.78;;;2.78;;
9698;SDS011;10089;47.876;8.346;2023-05-07T06:45:52;4.35;;;2.88;;
9698;SDS011;10089;47.876;8.346;2023-05-07T06:48:18;4.60;;;2.88;;
9698;SDS011;10089;47.876;8.346;2023-05-07T06:50:44;4.97;;;2.85;;
9698;SDS011;10089;47.876;8.346;2023-05-07T06:53:09;3.42;;;2.60;;
9698;SDS011;10089;47.876;8.346;2023-05-07T06:55:35;5.47;;;3.17;;
9698;SDS011;10089;47.876;8.346;2023-05-07T06:58:03;4.03;;;2.65;;
9698;SDS011;10089;47.876;8.346;2023-05-07T07:00:29;3.25;;;2.70;;
9698;SDS011;10089;47.876;8.346;2023-05-07T07:02:54;4.18;;;2.30;;
9698;SDS011;10089;47.876;8.346;2023-05-07T07:05:26;4.57;;;2.60;;
9698;SDS011;10089;47.876;8.346;2023-05-07T07:07:52;5.05;;;2.72;;
9698;SDS011;10089;47.876;8.346;2023-05-07T07:10:21;4.40;;;2.60;;
9698;SDS011;10089;47.876;8.346;2023-05-07T07:12:48;4.18;;;2.88;;
9698;SDS011;10089;47.876;8.346;2023-05-07T07:15:16;3.67;;;2.88;;
9698;SDS011;10089;47.876;8.346;2023-05-07T07:17:42;4.43;;;2.70;;
9698;SDS011;10089;47.876;8.346;2023-05-07T07:20:08;4.32;;;2.50;;
9698;SDS011;10089;47.876;8.346;2023-05-07T07:22:34;5.07;;;2.60;;
9698;SDS011;10089;47.876;8.346;2023-05-07T07:24:59;4.38;;;2.75;;
9698;SDS011;10089;47.876;8.346;2023-05-07T07:27:28;3.88;;;2.92;;
9698;SDS011;10089;47.876;8.346;2023-05-07T07:29:54;3.35;;;2.65;;
9698;SDS011;10089;47.876;8.346;2023-05-07T07:32:20;3.10;;;2.50;;
9698;SDS011;10089;47.876;8.346;2023-05-07T07:34:45;2.65;;;2.20;;
9698;SDS011;10089;47.876;8.346;2023-05-07T07:37:11;3.42;;;2.47;;
9698;SDS011;10089;47.876;8.346;2023-05-07T07:39:37;2.90;;;2.58;;
9698;SDS011;10089;47.876;8.346;2023-05-07T07:42:02;4.65;;;2.85;;
9698;SDS011;10089;47.876;8.346;2023-05-07T07:44:34;4.32;;;2.63;;
9698;SDS011;10089;47.876;8.346;2023-05-07T07:46:59;3.80;;;2.35;;
9698;SDS011;10089;47.876;8.346;2023-05-07T07:49:25;5.78;;;2.22;;
9698;SDS011;10089;47.876;8.346;2023-05-07T07:51:51;3.53;;;2.33;;
9698;SDS011;10089;47.876;8.346;2023-05-07T07:54:16;3.95;;;2.30;;
9698;SDS011;10089;47.876;8.346;2023-05-07T07:56:42;3.88;;;2.97;;
9698;SDS011;10089;47.876;8.346;2023-05-07T07:59:08;3.40;;;2.13;;
9698;SDS011;10089;47.876;8.346;2023-05-07T08:01:34;2.53;;;2.20;;
9698;SDS011;10089;47.876;8.346;2023-05-07T08:04:00;2.28;;;2.00;;
9698;SDS011;10089;47.876;8.346;2023-05-07T08:06:32;4.65;;;2.40;;
9698;SDS011;10089;47.876;8.346;2023-05-07T08:08:58;2.70;;;2.15;;
9698;SDS011;10089;47.876;8.346;2023-05-07T08:11:24;5.03;;;2.30;;
9698;SDS011;10089;47.876;8.346;2023-05-07T08:13:50;3.08;;;1.80;;
9698;SDS011;10089;47.876;8.346;2023-05-07T08:16:16;2.45;;;1.80;;
9698;SDS011;10089;47.876;8.346;2023-05-07T08:18:41;6.13;;;3.35;;
9698;SDS011;10089;47.876;8.346;2023-05-07T08:21:07;2.85;;;2.10;;
9698;SDS011;10089;47.876;8.346;2023-05-07T08:23:33;5.95;;;2.05;;
9698;SDS011;10089;47.876;8.346;2023-05-07T08:25:59;8.35;;;6.07;;
9698;SDS011;10089;47.876;8.346;2023-05-07T08:28:25;9.27;;;7.63;;
9698;SDS011;10089;47.876;8.346;2023-05-07T08:30:51;9.85;;;5.45;;
9698;SDS011;10089;47.876;8.346;2023-05-07T08:33:16;6.97;;;5.38;;
9698;SDS011;10089;47.876;8.346;2023-05-07T08:35:42;4.47;;;3.55;;
9698;SDS011;10089;47.876;8.346;2023-05-07T08:38:08;15.32;;;8.70;;
9698;SDS011;10089;47.876;8.346;2023-05-07T08:43:06;5.65;;;3.03;;
9698;SDS011;10089;47.876;8.346;2023-05-07T08:45:33;12.48;;;8.70;;
9698;SDS011;10089;47.876;8.346;2023-05-07T08:48:01;14.63;;;10.43;;
9698;SDS011;10089;47.876;8.346;2023-05-07T08:50:30;9.93;;;5.05;;
9698;SDS011;10089;47.876;8.346;2023-05-07T08:52:56;3.50;;;2.00;;
9698;SDS011;10089;47.876;8.346;2023-05-07T08:55:25;5.15;;;2.35;;
9698;SDS011;10089;47.876;8.346;2023-05-07T08:57:50;2.63;;;2.17;;
9698;SDS011;10089;47.876;8.346;2023-05-07T09:00:18;3.17;;;2.78;;
9698;SDS011;10089;47.876;8.346;2023-05-07T09:02:43;2.60;;;2.10;;
9698;SDS011;10089;47.876;8.346;2023-05-07T09:05:09;3.15;;;2.38;;
9698;SDS011;10089;47.876;8.346;2023-05-07T09:07:35;2.72;;;2.20;;
9698;SDS011;10089;47.876;8.346;2023-05-07T09:10:01;2.67;;;2.10;;
9698;SDS011;10089;47.876;8.346;2023-05-07T09:12:31;2.35;;;1.83;;
9698;SDS011;10089;47.876;8.346;2023-05-07T09:14:57;4.70;;;2.38;;
9698;SDS011;10089;47.876;8.346;2023-05-07T09:17:24;3.40;;;2.40;;
9698;SDS011;10089;47.876;8.346;2023-05-07T09:19:50;3.25;;;2.40;;
9698;SDS011;10089;47.876;8.346;2023-05-07T09:22:16;3.13;;;2.40;;
9698;SDS011;10089;47.876;8.346;2023-05-07T09:24:49;5.07;;;2.10;;
9698;SDS011;10089;47.876;8.346;2023-05-07T09:27:16;9.57;;;2.30;;
9698;SDS011;10089;47.876;8.346;2023-05-07T09:29:43;3.15;;;2.53;;
9698;SDS011;10089;47.876;8.346;2023-05-07T09:32:09;3.17;;;2.25;;
9698;SDS011;10089;47.876;8.346;2023-05-07T09:34:35;5.82;;;2.67;;
9698;SDS011;10089;47.876;8.346;2023-05-07T09:37:01;5.10;;;2.60;;
9698;SDS011;10089;47.876;8.346;2023-05-07T09:39:47;3.33;;;3.00;;
9698;SDS011;10089;47.876;8.346;2023-05-07T09:42:14;6.78;;;3.30;;
9698;SDS011;10089;47.876;8.346;2023-05-07T09:44:40;4.70;;;3.50;;
9698;SDS011;10089;47.876;8.346;2023-05-07T09:47:08;4.80;;;3.70;;
9698;SDS011;10089;47.876;8.346;2023-05-07T09:49:35;4.53;;;3.70;;
9698;SDS011;10089;47.876;8.346;2023-05-07T09:52:02;7.85;;;4.45;;
9698;SDS011;10089;47.876;8.346;2023-05-07T09:54:31;7.53;;;3.83;;
9698;SDS011;10089;47.876;8.346;2023-05-07T09:56:59;5.63;;;4.55;;
9698;SDS011;10089;47.876;8.346;2023-05-07T09:59:32;6.10;;;4.20;;
9698;SDS011;10089;47.876;8.346;2023-05-07T10:02:00;7.43;;;4.40;;
9698;SDS011;10089;47.876;8.346;2023-05-07T10:04:26;6.07;;;3.85;;
9698;SDS011;10089;47.876;8.346;2023-05-07T10:06:52;4.95;;;4.45;;
9698;SDS011;10089;47.876;8.346;2023-05-07T10:09:20;7.10;;;4.13;;
9698;SDS011;10089;47.876;8.346;2023-05-07T10:11:48;5.68;;;3.45;;
9698;SDS011;10089;47.876;8.346;2023-05-07T10:14:15;6.85;;;4.40;;
9698;SDS011;10089;47.876;8.346;2023-05-07T10:16:41;4.57;;;3.55;;
9698;SDS011;10089;47.876;8.346;2023-05-07T10:19:07;5.75;;;3.88;;
9698;SDS011;10089;47.876;8.346;2023-05-07T10:21:35;10.13;;;4.05;;
9698;SDS011;10089;47.876;8.346;2023-05-07T10:24:04;7.07;;;3.80;;
9698;SDS011;10089;47.876;8.346;2023-05-07T10:26:38;4.38;;;3.60;;
9698;SDS011;10089;47.876;8.346;2023-05-07T10:29:11;4.00;;;3.30;;
9698;SDS011;10089;47.876;8.346;2023-05-07T10:34:14;3.92;;;3.40;;
9698;SDS011;10089;47.876;8.346;2023-05-07T10:36:44;5.20;;;3.35;;
9698;SDS011;10089;47.876;8.346;2023-05-07T10:39:11;5.47;;;3.35;;
9698;SDS011;10089;47.876;8.346;2023-05-07T10:41:37;4.38;;;3.28;;
9698;SDS011;10089;47.876;8.346;2023-05-07T10:44:03;4.60;;;3.08;;
9698;SDS011;10089;47.876;8.346;2023-05-07T10:46:29;4.32;;;3.10;;
9698;SDS011;10089;47.876;8.346;2023-05-07T10:51:41;5.30;;;2.50;;
9698;SDS011;10089;47.876;8.346;2023-05-07T10:56:39;4.25;;;2.25;;
9698;SDS011;10089;47.876;8.346;2023-05-07T11:01:56;9.30;;;2.70;;
9698;SDS011;10089;47.876;8.346;2023-05-07T11:04:22;6.28;;;2.40;;
9698;SDS011;10089;47.876;8.346;2023-05-07T11:07:14;6.05;;;2.60;;
9698;SDS011;10089;47.876;8.346;2023-05-07T11:10:00;6.85;;;3.70;;
9698;SDS011;10089;47.876;8.346;2023-05-07T11:15:07;6.65;;;2.63;;
9698;SDS011;10089;47.876;8.346;2023-05-07T11:17:34;4.60;;;2.45;;
9698;SDS011;10089;47.876;8.346;2023-05-07T11:20:16;4.10;;;2.20;;
9698;SDS011;10089;47.876;8.346;2023-05-07T11:22:42;4.75;;;2.17;;
9698;SDS011;10089;47.876;8.346;2023-05-07T11:25:08;5.53;;;2.72;;
9698;SDS011;10089;47.876;8.346;2023-05-07T11:27:34;4.22;;;2.15;;
9698;SDS011;10089;47.876;8.346;2023-05-07T11:30:02;5.13;;;2.47;;
9698;SDS011;10089;47.876;8.346;2023-05-07T11:32:28;9.68;;;2.75;;
9698;SDS011;10089;47.876;8.346;2023-05-07T11:34:56;3.63;;;2.10;;
9698;SDS011;10089;47.876;8.346;2023-05-07T11:37:23;2.92;;;1.95;;
9698;SDS011;10089;47.876;8.346;2023-05-07T11:39:50;4.18;;;1.98;;
9698;SDS011;10089;47.876;8.346;2023-05-07T11:44:57;5.40;;;2.45;;
9698;SDS011;10089;47.876;8.346;2023-05-07T11:47:23;4.85;;;2.67;;
9698;SDS011;10089;47.876;8.346;2023-05-07T11:49:53;6.90;;;2.45;;
9698;SDS011;10089;47.876;8.346;2023-05-07T11:52:20;6.60;;;3.00;;
9698;SDS011;10089;47.876;8.346;2023-05-07T11:54:57;5.22;;;2.80;;
9698;SDS011;10089;47.876;8.346;2023-05-07T11:57:25;5.25;;;2.70;;
9698;SDS011;10089;47.876;8.346;2023-05-07T11:59:58;6.22;;;2.15;;
9698;SDS011;10089;47.876;8.346;2023-05-07T12:02:27;5.07;;;2.08;;
9698;SDS011;10089;47.876;8.346;2023-05-07T12:04:54;4.93;;;2.20;;
9698;SDS011;10089;47.876;8.346;2023-05-07T12:07:20;3.70;;;2.30;;
9698;SDS011;10089;47.876;8.346;2023-05-07T12:09:46;4.43;;;2.10;;
9698;SDS011;10089;47.876;8.346;2023-05-07T12:12:13;3.28;;;2.50;;
9698;SDS011;10089;47.876;8.346;2023-05-07T12:14:43;3.90;;;2.45;;
9698;SDS011;10089;47.876;8.346;2023-05-07T12:17:13;4.28;;;2.60;;
9698;SDS011;10089;47.876;8.346;2023-05-07T12:19:39;4.38;;;3.00;;
9698;SDS011;10089;47.876;8.346;2023-05-07T12:22:07;4.60;;;3.03;;
9698;SDS011;10089;47.876;8.346;2023-05-07T12:24:43;5.28;;;2.35;;
9698;SDS011;10089;47.876;8.346;2023-05-07T12:27:09;5.03;;;2.80;;
9698;SDS011;10089;47.876;8.346;2023-05-07T12:29:35;8.60;;;2.13;;
9698;SDS011;10089;47.876;8.346;2023-05-07T12:32:04;4.32;;;2.58;;
9698;SDS011;10089;47.876;8.346;2023-05-07T12:34:31;4.35;;;2.45;;
9698;SDS011;10089;47.876;8.346;2023-05-07T12:36:57;5.55;;;2.92;;
9698;SDS011;10089;47.876;8.346;2023-05-07T12:39:27;2.50;;;2.10;;
9698;SDS011;10089;47.876;8.346;2023-05-07T12:41:53;4.47;;;2.80;;
9698;SDS011;10089;47.876;8.346;2023-05-07T12:44:39;5.15;;;3.63;;
9698;SDS011;10089;47.876;8.346;2023-05-07T12:47:04;3.95;;;2.90;;
9698;SDS011;10089;47.876;8.346;2023-05-07T12:49:30;6.07;;;3.63;;
9698;SDS011;10089;47.876;8.346;2023-05-07T12:51:56;5.35;;;2.78;;
9698;SDS011;10089;47.876;8.346;2023-05-07T12:54:31;3.15;;;2.60;;
9698;SDS011;10089;47.876;8.346;2023-05-07T12:59:38;11.60;;;5.53;;
9698;SDS011;10089;47.876;8.346;2023-05-07T13:02:08;8.27;;;5.32;;
9698;SDS011;10089;47.876;8.346;2023-05-07T13:04:35;16.13;;;9.60;;
9698;SDS011;10089;47.876;8.346;2023-05-07T13:07:01;5.25;;;3.13;;
9698;SDS011;10089;47.876;8.346;2023-05-07T13:09:27;6.28;;;3.55;;
9698;SDS011;10089;47.876;8.346;2023-05-07T13:35:07;3.55;;;2.80;;
9698;SDS011;10089;47.876;8.346;2023-05-07T13:37:32;5.45;;;2.65;;
9698;SDS011;10089;47.876;8.346;2023-05-07T13:39:58;5.35;;;2.90;;
9698;SDS011;10089;47.876;8.346;2023-05-07T13:42:24;3.63;;;3.05;;
9698;SDS011;10089;47.876;8.346;2023-05-07T13:44:50;3.20;;;1.73;;
9698;SDS011;10089;47.876;8.346;2023-05-07T13:47:15;4.88;;;2.70;;
9698;SDS011;10089;47.876;8.346;2023-05-07T13:49:41;3.70;;;2.22;;
9698;SDS011;10089;47.876;8.346;2023-05-07T13:52:07;4.68;;;2.20;;
9698;SDS011;10089;47.876;8.346;2023-05-07T13:54:39;3.78;;;2.10;;
9698;SDS011;10089;47.876;8.346;2023-05-07T13:57:07;3.58;;;2.25;;
9698;SDS011;10089;47.876;8.346;2023-05-07T13:59:56;4.40;;;2.33;;
9698;SDS011;10089;47.876;8.346;2023-05-07T14:02:48;4.20;;;2.47;;
9698;SDS011;10089;47.876;8.346;2023-05-07T14:05:19;2.60;;;2.20;;
9698;SDS011;10089;47.876;8.346;2023-05-07T14:07:47;3.20;;;2.33;;
9698;SDS011;10089;47.876;8.346;2023-05-07T14:10:24;3.03;;;2.15;;
9698;SDS011;10089;47.876;8.346;2023-05-07T14:12:50;2.65;;;2.17;;
9698;SDS011;10089;47.876;8.346;2023-05-07T14:15:16;3.85;;;2.10;;
9698;SDS011;10089;47.876;8.346;2023-05-07T14:17:47;3.50;;;2.20;;
9698;SDS011;10089;47.876;8.346;2023-05-07T14:20:20;3.22;;;1.95;;
9698;SDS011;10089;47.876;8.346;2023-05-07T14:22:45;3.80;;;1.80;;
9698;SDS011;10089;47.876;8.346;2023-05-07T14:25:21;2.20;;;2.00;;
9698;SDS011;10089;47.876;8.346;2023-05-07T14:27:47;3.75;;;2.17;;
9698;SDS011;10089;47.876;8.346;2023-05-07T14:30:13;2.65;;;2.08;;
9698;SDS011;10089;47.876;8.346;2023-05-07T14:32:38;3.80;;;2.40;;
9698;SDS011;10089;47.876;8.346;2023-05-07T14:35:04;2.47;;;2.15;;
9698;SDS011;10089;47.876;8.346;2023-05-07T14:37:33;3.15;;;2.05;;
9698;SDS011;10089;47.876;8.346;2023-05-07T14:39:59;1.98;;;1.70;;
9698;SDS011;10089;47.876;8.346;2023-05-07T14:42:25;3.42;;;2.10;;
9698;SDS011;10089;47.876;8.346;2023-05-07T14:44:59;2.00;;;1.85;;
9698;SDS011;10089;47.876;8.346;2023-05-07T14:47:52;2.58;;;1.85;;
9698;SDS011;10089;47.876;8.346;2023-05-07T14:50:34;4.40;;;2.03;;
9698;SDS011;10089;47.876;8.346;2023-05-07T14:53:05;2.72;;;2.47;;
9698;SDS011;10089;47.876;8.346;2023-05-07T14:55:31;1.83;;;1.65;;
9698;SDS011;10089;47.876;8.346;2023-05-07T15:00:49;1.70;;;1.60;;
9698;SDS011;10089;47.876;8.346;2023-05-07T15:03:18;2.20;;;1.63;;
9698;SDS011;10089;47.876;8.346;2023-05-07T15:06:02;3.92;;;1.70;;
9698;SDS011;10089;47.876;8.346;2023-05-07T15:11:33;2.38;;;1.60;;
9698;SDS011;10089;47.876;8.346;2023-05-07T15:14:03;2.97;;;1.63;;
9698;SDS011;10089;47.876;8.346;2023-05-07T15:16:40;3.67;;;1.77;;
9698;SDS011;10089;47.876;8.346;2023-05-07T15:19:21;1.92;;;1.60;;
9698;SDS011;10089;47.876;8.346;2023-05-07T15:22:12;2.15;;;1.70;;
9698;SDS011;10089;47.876;8.346;2023-05-07T15:24:56;2.50;;;1.65;;
9698;SDS011;10089;47.876;8.346;2023-05-07T15:27:22;2.90;;;1.20;;
9698;SDS011;10089;47.876;8.346;2023-05-07T15:29:48;3.22;;;1.60;;
9698;SDS011;10089;47.876;8.346;2023-05-07T15:32:13;1.55;;;1.20;;
9698;SDS011;10089;47.876;8.346;2023-05-07T15:34:39;1.45;;;1.35;;
9698;SDS011;10089;47.876;8.346;2023-05-07T15:37:06;1.67;;;1.40;;
9698;SDS011;10089;47.876;8.346;2023-05-07T15:39:31;2.03;;;1.70;;
9698;SDS011;10089;47.876;8.346;2023-05-07T15:41:57;1.45;;;1.27;;
9698;SDS011;10089;47.876;8.346;2023-05-07T15:44:23;7.22;;;1.60;;
9698;SDS011;10089;47.876;8.346;2023-05-07T15:46:52;1.90;;;1.30;;
9698;SDS011;10089;47.876;8.346;2023-05-07T15:49:18;2.60;;;1.27;;
9698;SDS011;10089;47.876;8.346;2023-05-07T15:51:44;3.03;;;1.45;;